createdAt,value
2023-05-12T00:00:56.734Z,74.85
2023-05-12T00:03:26.321Z,75.32
2023-05-12T00:05:54.552Z,75.78
2023-05-12T00:08:22.628Z,75.98
2023-05-12T00:10:50.989Z,75.67
2023-05-12T00:13:23.550Z,75.56
2023-05-12T00:15:52.448Z,75.26
2023-05-12T00:18:21.975Z,74.94
2023-05-12T00:20:50.080Z,74.07
2023-05-12T00:23:18.745Z,74.15
2023-05-12T00:25:46.901Z,73.37
2023-05-12T00:28:15.083Z,73.77
2023-05-12T00:30:43.344Z,74.61
2023-05-12T00:33:11.489Z,74.76
2023-05-12T00:35:40.930Z,74.86
2023-05-12T00:38:09.035Z,74.75
2023-05-12T00:40:37.176Z,75.04
2023-05-12T00:43:05.295Z,75.06
2023-05-12T00:45:33.462Z,74.94
2023-05-12T00:48:01.657Z,75.41
2023-05-12T00:50:29.793Z,75.61
2023-05-12T00:52:59.551Z,75.83
2023-05-12T00:55:27.798Z,76.37
2023-05-12T00:57:56.872Z,76.15
2023-05-12T01:00:24.950Z,76.36
2023-05-12T01:02:53.059Z,76.21
2023-05-12T01:05:21.289Z,75.92
2023-05-12T01:07:49.534Z,75.99
2023-05-12T01:10:20.442Z,76.55
2023-05-12T01:12:49.359Z,76.46
2023-05-12T01:15:18.400Z,76.67
2023-05-12T01:17:48.871Z,77.28
2023-05-12T01:20:18.814Z,77.31
2023-05-12T01:22:48.813Z,77.52
2023-05-12T01:25:18.043Z,77.61
2023-05-12T01:27:47.821Z,77.95
2023-05-12T01:30:18.383Z,78.22
2023-05-12T01:32:46.658Z,78.46
2023-05-12T01:35:14.713Z,78.03
2023-05-12T01:37:42.795Z,77.99
2023-05-12T01:40:11.369Z,78.16
2023-05-12T01:42:40.998Z,78.36
2023-05-12T01:45:11.779Z,78.28
2023-05-12T01:47:39.914Z,78.71
2023-05-12T01:50:08.350Z,79.00
2023-05-12T01:52:36.825Z,78.52
2023-05-12T01:55:05.593Z,78.60
2023-05-12T01:57:33.915Z,77.91
2023-05-12T02:00:02.004Z,78.15
2023-05-12T02:02:33.931Z,77.13
2023-05-12T02:05:02.077Z,77.38
2023-05-12T02:07:30.169Z,77.52
2023-05-12T02:09:58.510Z,76.63
2023-05-12T02:12:26.619Z,76.86
2023-05-12T02:14:54.742Z,77.02
2023-05-12T02:17:25.116Z,76.22
2023-05-12T02:19:54.771Z,76.13
2023-05-12T02:22:23.629Z,76.08
2023-05-12T02:24:51.710Z,75.72
2023-05-12T02:27:19.879Z,75.72
2023-05-12T02:29:48.046Z,75.48
2023-05-12T02:32:16.135Z,74.93
2023-05-12T02:34:44.307Z,74.81
2023-05-12T02:37:13.763Z,74.65
2023-05-12T02:39:41.833Z,74.91
2023-05-12T02:42:09.907Z,74.95
2023-05-12T02:44:38.012Z,74.88
2023-05-12T02:47:06.708Z,75.41
2023-05-12T02:49:34.753Z,75.55
2023-05-12T02:52:02.876Z,75.33
2023-05-12T02:54:32.352Z,75.33
2023-05-12T02:57:01.902Z,75.06
2023-05-12T02:59:30.709Z,75.04
2023-05-12T03:01:58.818Z,75.65
2023-05-12T03:04:26.953Z,75.05
2023-05-12T03:06:55.072Z,75.28
2023-05-12T03:09:23.697Z,75.63
2023-05-12T03:11:53.114Z,75.05
2023-05-12T03:14:21.405Z,75.26
2023-05-12T03:16:49.535Z,75.00
2023-05-12T03:19:17.688Z,75.28
2023-05-12T03:21:45.798Z,75.47
2023-05-12T03:24:13.919Z,75.78
2023-05-12T03:26:42.113Z,76.00
2023-05-12T03:29:11.734Z,76.35
2023-05-12T03:31:39.872Z,76.53
2023-05-12T03:34:07.978Z,77.15
2023-05-12T03:36:37.281Z,76.75
2023-05-12T03:39:05.628Z,77.00
2023-05-12T03:41:33.731Z,77.76
2023-05-12T03:44:01.816Z,78.12
2023-05-12T03:46:31.405Z,78.47
2023-05-12T03:48:59.817Z,78.28
2023-05-12T03:51:28.319Z,78.78
2023-05-12T03:53:56.389Z,78.71
2023-05-12T03:56:24.496Z,78.72
2023-05-12T03:58:52.654Z,78.09
2023-05-12T04:01:20.712Z,77.96
2023-05-12T04:03:50.393Z,77.82
2023-05-12T04:06:18.602Z,78.16
2023-05-12T04:08:46.689Z,77.60
2023-05-12T04:11:15.114Z,76.60
2023-05-12T04:13:43.218Z,77.24
2023-05-12T04:16:11.334Z,77.25
2023-05-12T04:18:39.607Z,77.59
2023-05-12T04:21:09.141Z,77.56
2023-05-12T04:23:37.235Z,77.22
2023-05-12T04:26:06.031Z,76.51
2023-05-12T04:28:34.168Z,75.90
2023-05-12T04:31:05.424Z,76.42
2023-05-12T04:33:33.590Z,75.97
2023-05-12T04:36:01.753Z,75.30
2023-05-12T04:38:31.283Z,74.08
2023-05-12T04:41:00.173Z,74.95
2023-05-12T04:46:00.340Z,74.08
2023-05-12T04:48:29.046Z,74.40
2023-05-12T04:50:57.166Z,74.62
2023-05-12T04:53:25.248Z,75.35
2023-05-12T04:55:56.537Z,75.35
2023-05-12T04:58:24.680Z,75.70
2023-05-12T05:00:52.997Z,75.78
2023-05-12T05:03:21.357Z,75.12
2023-05-12T05:05:50.057Z,75.57
2023-05-12T05:08:18.483Z,74.68
2023-05-12T05:10:46.645Z,75.72
2023-05-12T05:13:16.526Z,75.97
2023-05-12T05:15:51.080Z,75.69
2023-05-12T05:18:21.061Z,74.56
2023-05-12T05:20:57.329Z,74.84
2023-05-12T05:23:26.885Z,72.82
2023-05-12T05:25:54.961Z,72.81
2023-05-12T05:28:24.464Z,72.35
2023-05-12T05:30:52.727Z,71.68
2023-05-12T05:33:21.285Z,70.59
2023-05-12T05:35:49.357Z,69.39
2023-05-12T05:38:17.512Z,69.79
2023-05-12T05:40:53.130Z,70.10
2023-05-12T05:43:22.141Z,69.88
2023-05-12T05:45:52.040Z,69.42
2023-05-12T05:48:20.238Z,68.80
2023-05-12T05:50:48.380Z,68.42
2023-05-12T05:53:18.336Z,69.17
2023-05-12T05:55:46.632Z,69.38
2023-05-12T05:58:15.260Z,67.53
2023-05-12T06:00:43.548Z,66.86
2023-05-12T06:03:13.080Z,66.27
2023-05-12T06:05:42.207Z,66.27
2023-05-12T06:08:13.175Z,65.29
2023-05-12T06:10:42.088Z,65.55
2023-05-12T06:13:10.341Z,65.93
2023-05-12T06:15:38.629Z,65.46
2023-05-12T06:18:06.972Z,66.62
2023-05-12T06:20:36.436Z,66.13
2023-05-12T06:23:04.558Z,65.49
2023-05-12T06:25:33.514Z,66.12
2023-05-12T06:28:01.671Z,65.71
2023-05-12T06:30:29.749Z,65.60
2023-05-12T06:32:57.980Z,65.01
2023-05-12T06:35:26.198Z,63.88
2023-05-12T06:37:55.661Z,62.57
2023-05-12T06:40:23.735Z,62.07
2023-05-12T06:42:51.885Z,61.94
2023-05-12T06:45:20.334Z,61.07
2023-05-12T06:47:48.661Z,60.26
2023-05-12T06:50:17.506Z,59.92
2023-05-12T06:52:45.727Z,59.05
2023-05-12T06:55:19.895Z,59.33
2023-05-12T06:57:48.263Z,58.28
2023-05-12T07:00:16.995Z,58.79
2023-05-12T07:02:45.166Z,57.88
2023-05-12T07:05:13.437Z,57.07
2023-05-12T07:07:41.498Z,56.47
2023-05-12T07:10:10.343Z,56.47
2023-05-12T07:12:39.868Z,54.47
2023-05-12T07:15:09.701Z,53.43
2023-05-12T07:17:37.865Z,52.86
2023-05-12T07:20:07.161Z,51.19
2023-05-12T07:22:36.622Z,50.89
2023-05-12T07:25:08.039Z,50.40
2023-05-12T07:27:36.241Z,48.50
2023-05-12T07:30:06.778Z,47.81
2023-05-12T07:32:34.878Z,48.93
2023-05-12T07:35:03.645Z,49.68
2023-05-12T07:37:32.511Z,50.41
2023-05-12T07:40:00.579Z,48.59
2023-05-12T07:42:28.697Z,46.12
2023-05-12T07:44:56.848Z,45.53
2023-05-12T07:47:26.354Z,45.17
2023-05-12T07:49:54.495Z,44.59
2023-05-12T07:52:22.595Z,44.71
2023-05-12T07:54:50.791Z,44.09
2023-05-12T07:57:18.906Z,44.59
2023-05-12T07:59:46.991Z,43.46
2023-05-12T08:02:17.167Z,44.62
2023-05-12T08:04:46.677Z,43.81
2023-05-12T08:07:15.724Z,43.94
2023-05-12T08:09:43.821Z,43.73
2023-05-12T08:12:12.174Z,44.16
2023-05-12T08:14:40.264Z,43.14
2023-05-12T08:17:08.375Z,44.06
2023-05-12T08:19:36.461Z,43.72
2023-05-12T08:22:06.055Z,41.24
2023-05-12T08:24:37.122Z,39.41
2023-05-12T08:27:05.404Z,38.97
2023-05-12T08:29:33.486Z,39.67
2023-05-12T08:32:01.715Z,38.64
2023-05-12T08:34:29.851Z,40.19
2023-05-12T08:36:57.997Z,38.10
2023-05-12T08:39:30.922Z,37.11
2023-05-12T08:42:09.320Z,38.06
2023-05-12T08:44:38.655Z,38.64
2023-05-12T08:47:07.759Z,38.82
2023-05-12T08:49:38.793Z,39.47
2023-05-12T08:52:08.897Z,38.30
2023-05-12T08:54:48.578Z,38.12
2023-05-12T08:57:21.679Z,36.85
2023-05-12T08:59:50.027Z,34.41
2023-05-12T09:02:18.492Z,33.89
2023-05-12T09:04:46.688Z,32.91
2023-05-12T09:07:14.929Z,33.47
2023-05-12T09:09:45.614Z,34.21
2023-05-12T09:12:16.837Z,34.81
2023-05-12T09:14:46.319Z,33.51
2023-05-12T09:17:14.532Z,32.39
2023-05-12T09:19:42.643Z,30.87
2023-05-12T09:22:14.784Z,31.20
2023-05-12T09:24:44.372Z,31.41
2023-05-12T09:27:12.516Z,31.82
2023-05-12T09:29:59.303Z,30.22
2023-05-12T09:32:32.484Z,28.64
2023-05-12T09:35:04.052Z,29.18
2023-05-12T09:37:32.907Z,30.12
2023-05-12T09:40:02.770Z,29.05
2023-05-12T09:42:32.136Z,29.60
2023-05-12T09:45:04.184Z,29.33
2023-05-12T09:47:37.582Z,30.16
2023-05-12T09:50:07.216Z,28.65
2023-05-12T09:52:38.727Z,28.45
2023-05-12T09:55:11.311Z,28.56
2023-05-12T09:57:41.463Z,28.83
2023-05-12T10:00:21.087Z,27.91
2023-05-12T10:02:59.753Z,27.87
2023-05-12T10:05:29.042Z,27.37
2023-05-12T10:07:58.817Z,28.01
2023-05-12T10:10:29.220Z,28.32
2023-05-12T10:12:57.474Z,29.03
2023-05-12T10:15:25.874Z,28.14
2023-05-12T10:17:55.335Z,28.90
2023-05-12T10:20:24.072Z,28.44
2023-05-12T10:22:52.981Z,27.37
2023-05-12T10:25:22.315Z,27.89
2023-05-12T10:27:53.025Z,27.85
2023-05-12T10:30:21.696Z,28.13
2023-05-12T10:32:50.834Z,29.17
2023-05-12T10:35:19.130Z,26.91
2023-05-12T10:37:48.191Z,26.69
2023-05-12T10:40:24.908Z,26.48
2023-05-12T10:42:58.785Z,26.52
2023-05-12T10:45:26.952Z,26.29
2023-05-12T10:48:06.149Z,27.06
2023-05-12T10:50:34.592Z,26.39
2023-05-12T10:53:02.677Z,26.57
2023-05-12T10:55:35.847Z,25.89
2023-05-12T10:58:12.305Z,25.59
2023-05-12T11:00:51.802Z,24.86
2023-05-12T11:03:27.417Z,25.01
2023-05-12T11:06:01.094Z,25.62
2023-05-12T11:08:30.519Z,25.13
2023-05-12T11:10:59.195Z,26.14
2023-05-12T11:13:29.809Z,25.67
2023-05-12T11:15:58.508Z,25.84
2023-05-12T11:18:26.839Z,26.07
2023-05-12T11:20:54.948Z,25.90
2023-05-12T11:23:27.324Z,25.72
2023-05-12T11:25:55.742Z,25.06
2023-05-12T11:28:23.880Z,24.64
2023-05-12T11:30:55.388Z,23.82
2023-05-12T11:33:24.314Z,24.46
2023-05-12T11:35:52.522Z,24.05
2023-05-12T11:38:24.349Z,25.67
2023-05-12T11:40:52.542Z,24.13
2023-05-12T11:43:21.803Z,25.66
2023-05-12T11:45:50.562Z,25.85
2023-05-12T11:48:21.595Z,25.10
2023-05-12T11:50:51.317Z,24.16
2023-05-12T11:53:19.971Z,23.89
2023-05-12T11:55:52.149Z,23.77
2023-05-12T11:58:22.359Z,23.39
2023-05-12T12:00:50.656Z,22.79
2023-05-12T12:03:20.892Z,22.97
2023-05-12T12:05:59.469Z,23.02
2023-05-12T12:08:27.611Z,23.26
2023-05-12T12:10:55.857Z,23.80
2023-05-12T12:13:25.210Z,22.45
2023-05-12T12:15:53.850Z,22.87
2023-05-12T12:18:23.733Z,23.67
2023-05-12T12:20:51.812Z,25.49
2023-05-12T12:23:19.931Z,25.82
2023-05-12T12:25:48.099Z,26.07
2023-05-12T12:28:16.356Z,25.43
2023-05-12T12:30:44.455Z,24.24
2023-05-12T12:33:13.025Z,24.04
2023-05-12T12:35:42.529Z,24.20
2023-05-12T12:38:10.633Z,25.02
2023-05-12T12:40:38.713Z,27.08
2023-05-12T12:43:06.878Z,26.85
2023-05-12T12:45:35.098Z,26.90
2023-05-12T12:48:03.238Z,26.66
2023-05-12T12:50:32.352Z,26.98
2023-05-12T12:53:01.889Z,27.35
2023-05-12T12:55:29.979Z,27.71
2023-05-12T12:57:58.053Z,26.86
2023-05-12T13:00:26.949Z,27.69
2023-05-12T13:02:55.302Z,27.39
2023-05-12T13:05:23.495Z,29.06
2023-05-12T13:07:52.444Z,28.12
2023-05-12T13:10:22.101Z,28.26
2023-05-12T13:12:50.204Z,28.48
2023-05-12T13:15:19.474Z,28.25
2023-05-12T13:17:47.889Z,29.29
2023-05-12T13:20:16.516Z,29.75
2023-05-12T13:22:45.425Z,29.49
2023-05-12T13:25:13.521Z,29.57
2023-05-12T13:27:43.053Z,30.57
2023-05-12T13:30:13.478Z,30.90
2023-05-12T13:32:42.346Z,30.18
2023-05-12T13:35:11.166Z,30.33
2023-05-12T13:37:39.291Z,31.08
2023-05-12T13:40:09.252Z,31.98
2023-05-12T13:42:37.756Z,31.83
2023-05-12T13:45:09.160Z,31.56
2023-05-12T13:47:37.856Z,31.88
2023-05-12T13:50:07.479Z,32.00
2023-05-12T13:52:35.701Z,32.20
2023-05-12T13:55:04.300Z,32.33
2023-05-12T13:57:32.408Z,32.47
2023-05-12T14:00:00.851Z,32.32
2023-05-12T14:02:30.387Z,33.00
2023-05-12T14:04:58.740Z,32.73
2023-05-12T14:07:26.932Z,33.13
2023-05-12T14:09:55.087Z,33.03
2023-05-12T14:12:23.273Z,33.35
2023-05-12T14:14:51.415Z,33.06
2023-05-12T14:17:19.575Z,33.72
2023-05-12T14:19:49.037Z,33.47
2023-05-12T14:22:25.409Z,34.49
2023-05-12T14:24:55.779Z,33.97
2023-05-12T14:27:23.957Z,34.22
2023-05-12T14:29:52.256Z,34.71
2023-05-12T14:32:20.520Z,35.28
2023-05-12T14:34:50.019Z,35.96
2023-05-12T14:37:18.327Z,35.63
2023-05-12T14:39:46.622Z,36.52
2023-05-12T14:42:14.841Z,36.56
2023-05-12T14:44:42.955Z,35.85
2023-05-12T14:47:11.068Z,36.50
2023-05-12T14:49:39.172Z,36.94
2023-05-12T14:52:08.778Z,36.79
2023-05-12T14:54:37.641Z,37.07
2023-05-12T14:57:05.908Z,37.08
2023-05-12T14:59:33.991Z,37.27
2023-05-12T15:02:02.091Z,37.35
2023-05-12T15:04:30.613Z,37.45
2023-05-12T15:06:58.699Z,38.04
2023-05-12T15:09:28.144Z,37.78
2023-05-12T15:11:56.490Z,37.69
2023-05-12T15:16:57.561Z,38.11
2023-05-12T15:19:25.770Z,38.72
2023-05-12T15:21:53.827Z,38.60
2023-05-12T15:24:21.950Z,39.21
2023-05-12T15:26:51.387Z,38.75
2023-05-12T15:29:19.446Z,37.78
2023-05-12T15:31:48.778Z,37.18
2023-05-12T15:34:17.212Z,36.27
2023-05-12T15:36:45.733Z,36.59
2023-05-12T15:39:13.792Z,37.41
2023-05-12T15:41:41.884Z,36.65
2023-05-12T15:44:11.404Z,36.80
2023-05-12T15:46:39.530Z,36.57
2023-05-12T15:49:07.645Z,37.03
2023-05-12T15:51:36.458Z,37.01
2023-05-12T15:54:06.393Z,36.80
2023-05-12T15:56:35.201Z,37.31
2023-05-12T15:59:05.188Z,37.54
2023-05-12T16:01:34.855Z,36.90
2023-05-12T16:04:03.145Z,36.37
2023-05-12T16:06:31.329Z,36.45
2023-05-12T16:08:59.415Z,36.37
2023-05-12T16:11:28.324Z,36.28
2023-05-12T16:13:57.203Z,36.50
2023-05-12T16:16:25.384Z,36.54
2023-05-12T16:18:54.979Z,36.24
2023-05-12T16:21:23.153Z,36.74
2023-05-12T16:23:51.333Z,36.34
2023-05-12T16:26:20.126Z,36.60
2023-05-12T16:28:48.249Z,37.27
2023-05-12T16:31:18.774Z,36.99
2023-05-12T16:33:46.980Z,37.18
2023-05-12T16:36:17.786Z,37.03
2023-05-12T16:38:46.678Z,37.14
2023-05-12T16:41:14.961Z,37.24
2023-05-12T16:43:43.040Z,36.70
2023-05-12T16:46:11.570Z,36.76
2023-05-12T16:48:39.874Z,37.08
2023-05-12T16:51:09.105Z,37.58
2023-05-12T16:53:38.864Z,38.20
2023-05-12T16:56:07.734Z,38.03
2023-05-12T16:58:36.299Z,37.42
2023-05-12T17:01:05.426Z,37.10
2023-05-12T17:03:33.708Z,37.66
2023-05-12T17:06:01.832Z,38.09
2023-05-12T17:08:29.959Z,38.74
2023-05-12T17:10:59.424Z,39.37
2023-05-12T17:13:27.461Z,38.93
2023-05-12T17:15:55.678Z,39.58
2023-05-12T17:18:24.727Z,39.62
2023-05-12T17:20:52.894Z,38.99
2023-05-12T17:23:21.558Z,39.30
2023-05-12T17:25:49.680Z,39.48
2023-05-12T17:28:19.393Z,39.39
2023-05-12T17:30:48.066Z,39.26
2023-05-12T17:33:16.454Z,40.24
2023-05-12T17:35:50.829Z,40.76
2023-05-12T17:38:27.734Z,41.12
2023-05-12T17:40:55.875Z,40.93
2023-05-12T17:43:25.601Z,41.07
2023-05-12T17:45:53.700Z,41.21
2023-05-12T17:48:21.866Z,40.96
2023-05-12T17:50:49.950Z,41.44
2023-05-12T17:53:17.998Z,41.39
2023-05-12T17:55:46.196Z,41.65
2023-05-12T17:58:14.264Z,42.11
2023-05-12T18:00:43.803Z,41.97
2023-05-12T18:03:12.176Z,42.05
2023-05-12T18:05:40.536Z,42.13
2023-05-12T18:08:08.999Z,42.02
2023-05-12T18:10:37.318Z,42.25
2023-05-12T18:13:05.377Z,43.61
2023-05-12T18:15:33.461Z,43.42
2023-05-12T18:18:03.046Z,42.96
2023-05-12T18:20:31.240Z,43.13
2023-05-12T18:22:59.391Z,43.69
2023-05-12T18:25:27.506Z,43.58
2023-05-12T18:27:55.569Z,43.67
2023-05-12T18:30:23.706Z,43.51
2023-05-12T18:32:51.885Z,44.07
2023-05-12T18:35:21.862Z,43.92
2023-05-12T18:37:50.180Z,44.29
2023-05-12T18:40:18.320Z,44.70
2023-05-12T18:42:46.369Z,44.64
2023-05-12T18:45:14.477Z,45.29
2023-05-12T18:47:42.655Z,45.62
2023-05-12T18:50:11.567Z,45.57
2023-05-12T18:52:41.181Z,45.83
2023-05-12T18:55:09.706Z,45.93
2023-05-12T18:57:37.824Z,46.21
2023-05-12T19:00:07.278Z,46.87
2023-05-12T19:02:35.686Z,46.86
2023-05-12T19:05:03.946Z,47.22
2023-05-12T19:07:32.053Z,47.53
2023-05-12T19:10:01.531Z,47.87
2023-05-12T19:12:29.655Z,48.29
2023-05-12T19:14:57.757Z,48.62
2023-05-12T19:17:25.961Z,49.09
2023-05-12T19:19:54.048Z,49.29
2023-05-12T19:22:23.470Z,49.74
2023-05-12T19:24:51.874Z,50.60
2023-05-12T19:27:21.282Z,50.86
2023-05-12T19:29:49.638Z,50.95
2023-05-12T19:32:18.111Z,51.38
2023-05-12T19:34:46.234Z,51.62
2023-05-12T19:37:14.494Z,52.18
2023-05-12T19:39:42.543Z,52.30
2023-05-12T19:42:10.586Z,52.89
2023-05-12T19:44:40.061Z,53.34
2023-05-12T19:47:08.688Z,53.57
2023-05-12T19:49:37.030Z,54.37
2023-05-12T19:52:06.739Z,54.64
2023-05-12T19:54:34.859Z,55.15
2023-05-12T19:57:03.038Z,55.40
2023-05-12T19:59:31.110Z,55.52
2023-05-12T20:02:00.602Z,55.70
2023-05-12T20:04:28.710Z,56.30
2023-05-12T20:06:57.402Z,56.59
2023-05-12T20:09:26.184Z,56.54
2023-05-12T20:11:54.323Z,57.22
2023-05-12T20:14:22.420Z,57.11
2023-05-12T20:16:50.594Z,57.51
2023-05-12T20:19:20.092Z,57.91
2023-05-12T20:21:48.170Z,58.52
2023-05-12T20:24:16.294Z,58.65
2023-05-12T20:26:44.345Z,58.77
2023-05-12T20:29:12.426Z,58.96
2023-05-12T20:31:40.558Z,58.92
2023-05-12T20:34:08.768Z,59.58
2023-05-12T20:36:38.227Z,59.68
2023-05-12T20:39:07.882Z,60.07
2023-05-12T20:41:35.950Z,60.24
2023-05-12T20:44:04.708Z,60.35
2023-05-12T20:46:33.985Z,60.82
2023-05-12T20:49:03.843Z,61.06
2023-05-12T20:51:32.397Z,61.25
2023-05-12T20:54:01.931Z,61.78
2023-05-12T20:56:30.005Z,62.15
2023-05-12T20:58:58.440Z,62.39
2023-05-12T21:01:26.552Z,62.94
2023-05-12T21:03:54.686Z,63.11
2023-05-12T21:06:22.790Z,63.26
2023-05-12T21:08:50.867Z,63.66
2023-05-12T21:11:20.318Z,64.24
2023-05-12T21:13:48.480Z,64.64
2023-05-12T21:16:16.765Z,64.88
2023-05-12T21:18:45.023Z,65.30
2023-05-12T21:21:13.219Z,65.64
2023-05-12T21:23:41.279Z,66.10
2023-05-12T21:26:10.467Z,66.41
2023-05-12T21:28:39.944Z,66.51
2023-05-12T21:31:08.054Z,66.88
2023-05-12T21:33:36.142Z,67.03
2023-05-12T21:36:04.505Z,67.45
2023-05-12T21:38:32.974Z,67.96
2023-05-12T21:41:01.190Z,68.05
2023-05-12T21:43:29.251Z,68.40
2023-05-12T21:46:02.388Z,68.64
2023-05-12T21:48:30.569Z,68.94
2023-05-12T21:50:59.954Z,69.22
2023-05-12T21:53:28.256Z,69.42
2023-05-12T21:55:56.653Z,69.57
2023-05-12T21:58:24.773Z,70.02
2023-05-12T22:00:53.340Z,70.19
2023-05-12T22:03:25.117Z,70.62
2023-05-12T22:05:53.383Z,70.91
2023-05-12T22:08:21.579Z,71.04
2023-05-12T22:10:49.673Z,71.15
2023-05-12T22:13:17.791Z,71.35
2023-05-12T22:15:45.872Z,71.61
2023-05-12T22:18:13.953Z,71.79
2023-05-12T22:20:43.523Z,71.86
2023-05-12T22:23:11.564Z,71.96
2023-05-12T22:25:39.659Z,72.33
2023-05-12T22:28:07.758Z,72.59
2023-05-12T22:30:35.866Z,73.04
2023-05-12T22:33:03.974Z,73.39
2023-05-12T22:35:32.091Z,73.70
2023-05-12T22:38:01.696Z,74.07
2023-05-12T22:40:30.675Z,74.48
2023-05-12T22:42:58.728Z,74.71
2023-05-12T22:45:26.893Z,74.95
2023-05-12T22:47:55.153Z,75.20
2023-05-12T22:50:23.791Z,75.44
2023-05-12T22:52:56.956Z,75.65
2023-05-12T22:55:28.250Z,75.76
2023-05-12T22:57:56.301Z,75.92
2023-05-12T23:00:24.549Z,76.16
2023-05-12T23:02:52.685Z,76.34
2023-05-12T23:05:21.014Z,76.61
2023-05-12T23:07:49.133Z,76.62
2023-05-12T23:10:17.330Z,76.59
2023-05-12T23:12:46.740Z,76.87
2023-05-12T23:15:14.779Z,77.03
2023-05-12T23:17:42.875Z,77.22
2023-05-12T23:20:11.480Z,77.55
2023-05-12T23:22:39.495Z,77.57
2023-05-12T23:25:08.387Z,77.85
2023-05-12T23:27:36.945Z,78.06
2023-05-12T23:30:07.832Z,78.43
2023-05-12T23:32:36.067Z,78.27
2023-05-12T23:35:04.590Z,78.39
2023-05-12T23:37:32.666Z,78.79
2023-05-12T23:40:00.796Z,78.40
2023-05-12T23:42:29.022Z,78.35
2023-05-12T23:44:57.111Z,78.57
2023-05-12T23:47:26.829Z,79.35
2023-05-12T23:49:54.976Z,79.68
2023-05-12T23:52:23.042Z,80.03
2023-05-12T23:54:51.148Z,80.31
2023-05-12T23:57:19.216Z,80.77
2023-05-12T23:59:47.288Z,80.75
